createdAt,value
2023-02-22T00:00:46.102Z,13.23
2023-02-22T00:03:39.195Z,11.65
2023-02-22T00:06:06.327Z,12.25
2023-02-22T00:08:34.569Z,13.00
2023-02-22T00:11:03.274Z,12.30
2023-02-22T00:13:29.972Z,12.05
2023-02-22T00:16:00.194Z,12.75
2023-02-22T00:18:29.986Z,10.95
2023-02-22T00:20:59.906Z,11.07
2023-02-22T00:23:28.439Z,11.43
2023-02-22T00:25:55.421Z,11.85
2023-02-22T00:28:24.121Z,11.52
2023-02-22T00:30:51.130Z,11.50
2023-02-22T00:33:17.998Z,11.65
2023-02-22T00:35:46.030Z,11.15
2023-02-22T00:38:13.907Z,11.15
2023-02-22T00:40:40.544Z,12.10
2023-02-22T00:43:07.318Z,11.43
2023-02-22T00:45:36.047Z,11.35
2023-02-22T00:48:03.399Z,10.90
2023-02-22T00:50:31.028Z,10.85
2023-02-22T00:52:59.488Z,11.32
2023-02-22T00:55:30.685Z,11.55
2023-02-22T00:57:57.469Z,12.00
2023-02-22T01:00:25.899Z,11.68
2023-02-22T01:02:52.902Z,13.23
2023-02-22T01:05:22.281Z,13.55
2023-02-22T01:07:49.692Z,14.80
2023-02-22T01:10:17.950Z,14.32
2023-02-22T01:12:44.710Z,16.02
2023-02-22T01:15:11.388Z,15.68
2023-02-22T01:17:38.782Z,17.25
2023-02-22T01:20:12.709Z,16.48
2023-02-22T01:22:43.494Z,16.10
2023-02-22T01:25:10.879Z,18.15
2023-02-22T01:27:38.656Z,17.20
2023-02-22T01:30:08.588Z,15.18
2023-02-22T01:32:36.434Z,15.98
2023-02-22T01:35:04.996Z,16.65
2023-02-22T01:37:32.365Z,16.75
2023-02-22T01:40:00.208Z,16.88
2023-02-22T01:42:27.021Z,17.10
2023-02-22T01:45:30.915Z,15.77
2023-02-22T01:48:03.261Z,16.95
2023-02-22T01:50:29.937Z,16.67
2023-02-22T01:52:56.844Z,16.40
2023-02-22T01:55:23.689Z,16.35
2023-02-22T01:57:50.272Z,14.68
2023-02-22T02:00:21.791Z,17.05
2023-02-22T02:02:53.306Z,16.80
2023-02-22T02:05:19.965Z,15.60
2023-02-22T02:07:46.648Z,15.95
2023-02-22T02:10:16.949Z,16.48
2023-02-22T02:12:45.377Z,15.73
2023-02-22T02:15:25.274Z,18.17
2023-02-22T02:17:53.816Z,15.98
2023-02-22T02:20:38.676Z,17.88
2023-02-22T02:23:43.131Z,18.42
2023-02-22T02:26:43.331Z,17.77
2023-02-22T02:29:18.600Z,15.73
2023-02-22T02:32:21.672Z,16.45
2023-02-22T02:34:54.264Z,17.30
2023-02-22T02:37:33.230Z,15.85
2023-02-22T02:40:41.289Z,16.13
2023-02-22T02:43:29.967Z,18.27
2023-02-22T02:46:19.494Z,17.77
2023-02-22T02:48:50.376Z,17.63
2023-02-22T02:51:17.495Z,16.23
2023-02-22T02:53:46.172Z,18.55
2023-02-22T02:56:12.880Z,17.35
2023-02-22T02:58:49.096Z,18.23
2023-02-22T03:01:27.139Z,17.35
2023-02-22T03:04:22.913Z,18.40
2023-02-22T03:06:57.332Z,18.63
2023-02-22T03:09:46.725Z,18.20
2023-02-22T03:12:17.670Z,18.73
2023-02-22T03:15:01.580Z,18.48
2023-02-22T03:17:41.452Z,18.27
2023-02-22T03:20:45.404Z,18.20
2023-02-22T03:23:24.704Z,18.05
2023-02-22T03:26:01.705Z,16.48
2023-02-22T03:28:28.550Z,18.08
2023-02-22T03:31:05.431Z,18.10
2023-02-22T03:33:41.534Z,17.92
2023-02-22T03:36:16.091Z,18.00
2023-02-22T03:38:42.987Z,19.45
2023-02-22T03:41:09.988Z,17.27
2023-02-22T03:43:44.654Z,17.77
2023-02-22T03:46:11.680Z,18.88
2023-02-22T03:48:51.695Z,17.83
2023-02-22T03:51:18.835Z,19.00
2023-02-22T03:53:45.759Z,18.25
2023-02-22T03:56:15.255Z,18.30
2023-02-22T03:58:44.034Z,18.33
2023-02-22T04:01:11.338Z,18.67
2023-02-22T04:03:38.197Z,18.65
2023-02-22T04:06:04.980Z,17.55
2023-02-22T04:08:31.841Z,17.85
2023-02-22T04:10:58.842Z,18.42
2023-02-22T04:13:27.619Z,18.65
2023-02-22T04:15:54.336Z,18.20
2023-02-22T04:18:20.970Z,19.38
2023-02-22T04:20:47.585Z,18.73
2023-02-22T04:23:14.213Z,18.90
2023-02-22T04:25:41.048Z,18.10
2023-02-22T04:28:07.766Z,18.45
2023-02-22T04:30:34.451Z,18.77
2023-02-22T04:33:01.103Z,19.33
2023-02-22T04:35:27.979Z,19.35
2023-02-22T04:37:54.646Z,20.38
2023-02-22T04:40:21.483Z,20.05
2023-02-22T04:42:48.352Z,17.35
2023-02-22T04:45:14.992Z,18.75
2023-02-22T04:47:41.625Z,18.83
2023-02-22T04:50:08.893Z,19.33
2023-02-22T04:52:35.555Z,18.83
2023-02-22T04:55:02.238Z,19.50
2023-02-22T04:57:29.034Z,18.95
2023-02-22T04:59:56.003Z,19.00
2023-02-22T05:02:22.598Z,19.52
2023-02-22T05:04:49.348Z,19.80
2023-02-22T05:07:16.125Z,19.83
2023-02-22T05:09:42.769Z,18.73
2023-02-22T05:12:09.424Z,19.00
2023-02-22T05:14:36.115Z,18.63
2023-02-22T05:17:03.099Z,20.48
2023-02-22T05:19:31.668Z,20.73
2023-02-22T05:21:58.276Z,20.60
2023-02-22T05:24:25.165Z,19.35
2023-02-22T05:26:53.181Z,18.88
2023-02-22T05:29:20.337Z,19.20
2023-02-22T05:31:47.019Z,18.77
2023-02-22T05:34:14.320Z,19.52
2023-02-22T05:36:41.226Z,19.00
2023-02-22T05:39:07.911Z,18.00
2023-02-22T05:41:34.559Z,19.75
2023-02-22T05:44:03.350Z,19.50
2023-02-22T05:46:30.007Z,18.42
2023-02-22T05:48:56.685Z,18.17
2023-02-22T05:51:23.328Z,18.75
2023-02-22T05:53:52.091Z,18.70
2023-02-22T05:56:28.003Z,18.25
2023-02-22T05:58:54.859Z,18.48
2023-02-22T06:01:21.866Z,16.20
2023-02-22T06:03:49.316Z,17.23
2023-02-22T06:06:16.556Z,19.13
2023-02-22T06:08:43.258Z,18.00
2023-02-22T06:11:10.306Z,18.30
2023-02-22T06:13:36.964Z,18.52
2023-02-22T06:16:03.972Z,17.85
2023-02-22T06:18:31.311Z,18.45
2023-02-22T06:20:58.892Z,18.00
2023-02-22T06:23:25.919Z,19.55
2023-02-22T06:25:52.548Z,18.35
2023-02-22T06:28:19.207Z,17.73
2023-02-22T06:30:46.225Z,17.80
2023-02-22T06:33:12.955Z,17.85
2023-02-22T06:35:39.620Z,18.38
2023-02-22T06:38:06.260Z,16.83
2023-02-22T06:40:32.952Z,16.98
2023-02-22T06:42:59.954Z,16.00
2023-02-22T06:45:26.716Z,18.23
2023-02-22T06:47:53.390Z,17.27
2023-02-22T06:50:25.276Z,16.63
2023-02-22T06:52:52.161Z,17.23
2023-02-22T06:55:24.071Z,16.48
2023-02-22T06:57:50.682Z,17.77
2023-02-22T07:00:18.822Z,16.95
2023-02-22T07:02:46.615Z,16.30
2023-02-22T07:05:13.232Z,16.23
2023-02-22T07:07:40.044Z,15.45
2023-02-22T07:10:08.186Z,15.77
2023-02-22T07:12:35.337Z,14.38
2023-02-22T07:15:01.969Z,15.68
2023-02-22T07:17:28.575Z,15.38
2023-02-22T07:19:55.196Z,15.95
2023-02-22T07:22:21.795Z,16.23
2023-02-22T07:24:48.428Z,16.63
2023-02-22T07:27:15.069Z,16.70
2023-02-22T07:29:45.112Z,16.02
2023-02-22T07:32:12.088Z,16.73
2023-02-22T07:34:38.797Z,16.42
2023-02-22T07:37:05.425Z,15.20
2023-02-22T07:39:32.088Z,15.85
2023-02-22T07:41:59.178Z,15.43
2023-02-22T07:44:25.795Z,14.85
2023-02-22T07:46:52.456Z,14.90
2023-02-22T07:49:19.094Z,15.38
2023-02-22T07:51:45.737Z,14.20
2023-02-22T07:54:12.349Z,14.18
2023-02-22T07:56:47.163Z,14.07
2023-02-22T07:59:14.401Z,14.52
2023-02-22T08:01:41.120Z,15.63
2023-02-22T08:04:07.835Z,14.80
2023-02-22T08:06:34.597Z,14.85
2023-02-22T08:09:01.232Z,14.60
2023-02-22T08:11:27.888Z,14.75
2023-02-22T08:13:54.537Z,14.48
2023-02-22T08:16:21.167Z,14.27
2023-02-22T08:18:47.800Z,15.20
2023-02-22T08:21:14.831Z,15.13
2023-02-22T08:23:41.747Z,14.85
2023-02-22T08:26:09.933Z,14.85
2023-02-22T08:28:36.869Z,14.63
2023-02-22T08:31:03.497Z,16.33
2023-02-22T08:33:30.374Z,15.20
2023-02-22T08:35:57.017Z,15.27
2023-02-22T08:38:26.321Z,14.80
2023-02-22T08:40:53.091Z,15.02
2023-02-22T08:43:19.970Z,15.10
2023-02-22T08:45:47.014Z,14.40
2023-02-22T08:48:14.144Z,14.52
2023-02-22T08:50:41.858Z,16.38
2023-02-22T08:53:09.107Z,14.10
2023-02-22T08:55:37.986Z,14.63
2023-02-22T08:58:05.472Z,15.32
2023-02-22T09:00:33.474Z,14.95
2023-02-22T09:03:03.445Z,12.85
2023-02-22T09:05:31.447Z,14.68
2023-02-22T09:07:58.585Z,13.98
2023-02-22T09:10:26.962Z,13.93
2023-02-22T09:12:55.445Z,14.05
2023-02-22T09:15:22.473Z,13.80
2023-02-22T09:17:49.209Z,13.30
2023-02-22T09:20:17.905Z,14.23
2023-02-22T09:22:48.084Z,15.48
2023-02-22T09:25:17.089Z,14.32
2023-02-22T09:27:44.336Z,12.43
2023-02-22T09:30:23.404Z,13.35
2023-02-22T09:32:54.458Z,13.18
2023-02-22T09:35:26.844Z,13.80
2023-02-22T09:37:59.186Z,14.50
2023-02-22T09:40:33.059Z,13.10
2023-02-22T09:43:14.776Z,14.10
2023-02-22T09:46:03.729Z,13.43
2023-02-22T09:48:31.849Z,13.10
2023-02-22T09:50:58.998Z,14.48
2023-02-22T09:53:30.074Z,14.05
2023-02-22T09:56:04.618Z,14.23
2023-02-22T09:58:35.223Z,12.75
2023-02-22T10:01:18.744Z,13.93
2023-02-22T10:04:13.334Z,13.75
2023-02-22T10:06:41.213Z,14.43
2023-02-22T10:09:09.354Z,13.88
2023-02-22T10:11:56.240Z,15.52
2023-02-22T10:14:34.745Z,13.90
2023-02-22T10:17:14.377Z,13.90
2023-02-22T10:19:44.017Z,14.57
2023-02-22T10:22:30.647Z,14.75
2023-02-22T10:25:05.034Z,14.32
2023-02-22T10:27:42.889Z,13.13
2023-02-22T10:30:25.346Z,13.50
2023-02-22T10:33:18.016Z,13.93
2023-02-22T10:35:46.860Z,13.43
2023-02-22T10:38:20.083Z,13.88
2023-02-22T10:41:15.536Z,13.07
2023-02-22T10:43:43.473Z,13.38
2023-02-22T10:46:13.577Z,12.43
2023-02-22T10:48:40.729Z,13.15
2023-02-22T10:51:08.563Z,14.02
2023-02-22T10:53:38.205Z,13.63
2023-02-22T10:56:08.881Z,14.55
2023-02-22T10:59:02.574Z,14.05
2023-02-22T11:01:32.408Z,14.40
2023-02-22T11:04:07.701Z,14.93
2023-02-22T11:06:34.921Z,14.48
2023-02-22T11:09:10.420Z,14.35
2023-02-22T11:11:37.692Z,14.65
2023-02-22T11:14:06.640Z,14.77
2023-02-22T11:16:42.042Z,15.13
2023-02-22T11:19:24.704Z,14.88
2023-02-22T11:32:53.152Z,13.02
2023-02-22T11:35:50.325Z,12.20
2023-02-22T11:38:21.209Z,11.93
2023-02-22T11:41:04.294Z,12.30
2023-02-22T11:43:31.303Z,11.18
2023-02-22T11:46:02.390Z,12.30
2023-02-22T11:48:31.062Z,10.80
2023-02-22T11:51:18.886Z,10.23
2023-02-22T11:53:53.392Z,9.48
2023-02-22T11:59:18.894Z,9.80
2023-02-22T12:01:51.349Z,10.40
2023-02-22T12:04:42.962Z,10.20
2023-02-22T12:07:16.093Z,9.10
2023-02-22T12:10:01.073Z,9.90
2023-02-22T12:12:38.269Z,10.80
2023-02-22T12:15:23.916Z,9.93
2023-02-22T12:18:00.551Z,9.63
2023-02-22T12:20:40.170Z,9.57
2023-02-22T12:23:12.918Z,9.50
2023-02-22T12:25:47.322Z,9.27
2023-02-22T12:28:29.026Z,9.65
2023-02-22T12:31:19.218Z,9.32
2023-02-22T12:33:51.802Z,9.82
2023-02-22T12:36:20.894Z,8.88
2023-02-22T12:38:52.211Z,8.80
2023-02-22T12:41:26.927Z,9.40
2023-02-22T12:44:02.775Z,9.13
2023-02-22T12:46:37.880Z,9.23
2023-02-22T12:49:24.797Z,9.75
2023-02-22T12:52:20.587Z,9.43
2023-02-22T12:55:01.699Z,9.35
2023-02-22T12:57:38.182Z,7.95
2023-02-22T13:00:23.064Z,7.28
2023-02-22T13:03:01.758Z,7.30
2023-02-22T13:05:31.256Z,6.63
2023-02-22T13:08:19.852Z,7.00
2023-02-22T13:10:52.616Z,6.10
2023-02-22T13:13:43.459Z,6.82
2023-02-22T13:16:10.017Z,6.43
2023-02-22T13:18:50.570Z,6.20
2023-02-22T13:21:30.023Z,5.88
2023-02-22T13:24:05.473Z,6.43
2023-02-22T13:26:34.969Z,7.25
2023-02-22T13:29:08.668Z,7.68
2023-02-22T13:32:04.980Z,7.38
2023-02-22T13:34:56.838Z,8.52
2023-02-22T13:37:45.787Z,7.15
2023-02-22T13:40:44.101Z,8.25
2023-02-22T13:43:42.374Z,7.78
2023-02-22T13:46:31.967Z,7.00
2023-02-22T13:49:24.121Z,6.60
2023-02-22T13:51:55.644Z,6.50
2023-02-22T13:54:57.381Z,6.07
2023-02-22T13:57:26.315Z,6.30
2023-02-22T14:00:22.798Z,6.53
2023-02-22T14:03:14.455Z,6.00
2023-02-22T14:05:50.026Z,5.82
2023-02-22T14:08:19.900Z,6.30
2023-02-22T14:10:55.019Z,6.55
2023-02-22T14:13:26.923Z,7.10
2023-02-22T14:16:02.580Z,7.28
2023-02-22T14:18:43.259Z,6.78
2023-02-22T14:21:20.498Z,5.72
2023-02-22T14:23:48.524Z,6.53
2023-02-22T14:26:24.062Z,6.10
2023-02-22T14:29:10.874Z,6.07
2023-02-22T14:31:43.412Z,6.07
2023-02-22T14:34:15.294Z,5.97
2023-02-22T14:36:47.822Z,6.35
2023-02-22T14:39:38.334Z,6.65
2023-02-22T14:42:16.944Z,6.50
2023-02-22T14:44:44.674Z,6.25
2023-02-22T14:47:16.676Z,6.00
2023-02-22T14:49:44.102Z,6.53
2023-02-22T14:52:27.912Z,6.80
2023-02-22T14:55:11.394Z,6.73
2023-02-22T14:57:49.932Z,6.57
2023-02-22T15:00:33.259Z,6.32
2023-02-22T15:03:00.263Z,6.43
2023-02-22T15:05:30.008Z,6.50
2023-02-22T15:07:59.110Z,6.63
2023-02-22T15:10:31.717Z,7.50
2023-02-22T15:13:09.769Z,7.25
2023-02-22T15:15:38.368Z,6.68
2023-02-22T15:18:06.626Z,7.10
2023-02-22T15:20:35.098Z,8.68
2023-02-22T15:23:01.976Z,7.90
2023-02-22T15:25:30.645Z,7.88
2023-02-22T15:28:03.886Z,7.82
2023-02-22T15:30:32.891Z,8.13
2023-02-22T15:33:14.686Z,7.47
2023-02-22T15:35:41.497Z,7.28
2023-02-22T15:38:11.246Z,7.35
2023-02-22T15:40:42.826Z,7.65
2023-02-22T15:43:19.692Z,7.00
2023-02-22T15:45:46.397Z,6.82
2023-02-22T15:48:14.781Z,7.22
2023-02-22T15:51:04.618Z,8.30
2023-02-22T15:53:43.207Z,7.10
2023-02-22T15:56:18.109Z,6.85
2023-02-22T15:58:46.094Z,6.85
2023-02-22T16:01:17.040Z,6.80
2023-02-22T16:03:49.075Z,6.80
2023-02-22T16:06:28.646Z,6.85
2023-02-22T16:08:55.961Z,6.03
2023-02-22T16:11:39.778Z,6.43
2023-02-22T16:14:23.175Z,6.95
2023-02-22T16:16:49.875Z,6.65
2023-02-22T16:19:22.373Z,7.05
2023-02-22T16:21:53.535Z,8.35
2023-02-22T16:24:31.548Z,7.43
2023-02-22T16:27:15.806Z,6.80
2023-02-22T16:29:42.707Z,7.43
2023-02-22T16:32:09.499Z,8.13
2023-02-22T16:34:36.420Z,7.30
2023-02-22T16:37:03.072Z,8.15
2023-02-22T16:39:31.021Z,8.50
2023-02-22T16:42:02.365Z,9.40
2023-02-22T16:44:29.154Z,9.40
2023-02-22T16:46:57.671Z,9.38
2023-02-22T16:49:24.692Z,9.13
2023-02-22T16:51:55.464Z,9.15
2023-02-22T16:54:43.669Z,9.23
2023-02-22T16:57:18.016Z,10.23
2023-02-22T16:59:44.653Z,9.07
2023-02-22T17:02:14.300Z,10.50
2023-02-22T17:04:41.092Z,10.40
2023-02-22T17:07:09.242Z,10.90
2023-02-22T17:09:36.165Z,10.45
2023-02-22T17:12:02.819Z,11.27
2023-02-22T17:14:31.878Z,10.85
2023-02-22T17:16:59.601Z,12.48
2023-02-22T17:19:26.551Z,12.63
2023-02-22T17:21:53.579Z,13.93
2023-02-22T17:24:24.869Z,13.55
2023-02-22T17:26:53.047Z,13.55
2023-02-22T17:29:21.004Z,12.45
2023-02-22T17:31:49.042Z,12.75
2023-02-22T17:34:15.697Z,12.77
2023-02-22T17:36:42.561Z,11.82
2023-02-22T17:39:10.584Z,12.15
2023-02-22T17:41:40.267Z,10.70
2023-02-22T17:44:07.201Z,10.98
2023-02-22T17:46:34.972Z,10.95
2023-02-22T17:49:03.210Z,10.27
2023-02-22T17:51:29.896Z,11.07
2023-02-22T17:53:56.528Z,11.05
2023-02-22T17:56:23.439Z,10.85
2023-02-22T17:58:53.296Z,11.07
2023-02-22T18:01:20.906Z,12.73
2023-02-22T18:03:47.804Z,11.57
2023-02-22T18:06:17.932Z,9.98
2023-02-22T18:08:45.000Z,10.70
2023-02-22T18:11:11.647Z,11.23
2023-02-22T18:13:38.292Z,11.27
2023-02-22T18:16:05.798Z,11.63
2023-02-22T18:18:32.782Z,11.20
2023-02-22T18:21:00.026Z,12.40
2023-02-22T18:23:30.468Z,11.93
2023-02-22T18:26:09.786Z,15.45
2023-02-22T18:28:37.575Z,12.85
2023-02-22T18:31:23.151Z,12.80
2023-02-22T18:33:51.073Z,12.63
2023-02-22T18:36:23.455Z,11.73
2023-02-22T18:38:51.677Z,12.85
2023-02-22T18:41:19.186Z,11.98
2023-02-22T18:43:50.856Z,13.57
2023-02-22T18:46:19.743Z,12.82
2023-02-22T18:48:47.138Z,12.38
2023-02-22T18:51:20.370Z,12.48
2023-02-22T18:53:48.014Z,13.13
2023-02-22T18:56:18.018Z,12.70
2023-02-22T18:58:45.025Z,12.88
2023-02-22T19:01:17.247Z,12.85
2023-02-22T19:03:44.659Z,13.43
2023-02-22T19:06:11.316Z,14.65
2023-02-22T19:08:44.545Z,19.25
2023-02-22T19:11:17.969Z,17.20
2023-02-22T19:13:46.385Z,17.47
2023-02-22T19:16:13.675Z,18.00
2023-02-22T19:18:40.560Z,18.45
2023-02-22T19:21:10.850Z,17.60
2023-02-22T19:23:39.549Z,16.52
2023-02-22T19:26:09.490Z,16.67
2023-02-22T19:28:36.175Z,15.55
2023-02-22T19:31:17.314Z,17.30
2023-02-22T19:33:44.643Z,17.05
2023-02-22T19:36:11.863Z,16.23
2023-02-22T19:38:38.494Z,16.55
2023-02-22T19:41:14.990Z,16.52
2023-02-22T19:43:41.719Z,16.05
2023-02-22T19:46:08.419Z,16.50
2023-02-22T19:48:35.372Z,15.70
2023-02-22T19:51:06.540Z,16.33
2023-02-22T19:53:39.020Z,15.27
2023-02-22T19:56:09.547Z,15.20
2023-02-22T19:58:40.416Z,15.55
2023-02-22T20:01:22.828Z,19.75
2023-02-22T20:03:56.152Z,17.58
2023-02-22T20:06:26.462Z,15.05
2023-02-22T20:08:53.413Z,14.98
2023-02-22T20:11:22.229Z,16.15
2023-02-22T20:13:48.889Z,16.17
2023-02-22T20:16:15.888Z,15.40
2023-02-22T20:18:46.077Z,16.08
2023-02-22T20:21:22.402Z,15.50
2023-02-22T20:23:49.088Z,14.98
2023-02-22T20:26:20.615Z,15.82
2023-02-22T20:28:47.298Z,15.45
2023-02-22T20:31:14.178Z,14.48
2023-02-22T20:33:41.900Z,15.85
2023-02-22T20:36:10.391Z,15.77
2023-02-22T20:38:37.480Z,15.93
2023-02-22T20:41:07.939Z,15.85
2023-02-22T20:43:34.726Z,15.85
2023-02-22T20:46:03.024Z,16.35
2023-02-22T20:48:29.812Z,14.60
2023-02-22T20:50:56.438Z,15.63
2023-02-22T20:53:25.628Z,16.10
2023-02-22T20:55:52.467Z,17.00
2023-02-22T20:58:21.669Z,16.98
2023-02-22T21:00:48.645Z,16.15
2023-02-22T21:03:15.255Z,15.75
2023-02-22T21:05:44.022Z,16.80
2023-02-22T21:08:12.311Z,17.13
2023-02-22T21:10:42.981Z,17.48
2023-02-22T21:13:11.521Z,17.40
2023-02-22T21:15:38.436Z,17.30
2023-02-22T21:18:05.305Z,18.15
2023-02-22T21:20:32.081Z,18.05
2023-02-22T21:23:01.839Z,19.90
2023-02-22T21:25:31.477Z,17.80
2023-02-22T21:28:01.221Z,18.73
2023-02-22T21:30:27.860Z,19.25
2023-02-22T21:32:55.598Z,20.15
2023-02-22T21:35:23.080Z,19.35
2023-02-22T21:37:49.860Z,21.27
2023-02-22T21:40:19.086Z,20.15
2023-02-22T21:42:48.163Z,21.17
2023-02-22T21:45:18.516Z,20.70
2023-02-22T21:47:48.273Z,20.17
2023-02-22T21:50:16.500Z,21.33
2023-02-22T21:52:43.981Z,20.92
2023-02-22T21:55:10.736Z,20.83
2023-02-22T21:57:37.996Z,22.27
2023-02-22T22:00:18.187Z,21.95
2023-02-22T22:02:48.255Z,22.58
2023-02-22T22:05:26.250Z,24.13
2023-02-22T22:07:53.061Z,22.92
2023-02-22T22:10:25.189Z,23.55
2023-02-22T22:12:52.760Z,23.00
2023-02-22T22:15:26.460Z,23.23
2023-02-22T22:17:53.058Z,30.63
2023-02-22T22:20:21.845Z,31.30
2023-02-22T22:22:49.142Z,25.90
2023-02-22T22:25:19.033Z,23.73
2023-02-22T22:27:45.948Z,23.40
2023-02-22T22:30:13.172Z,22.10
2023-02-22T22:32:40.187Z,22.70
2023-02-22T22:35:14.399Z,23.98
2023-02-22T22:37:50.977Z,23.75
2023-02-22T22:40:17.895Z,24.17
2023-02-22T22:42:45.484Z,24.23
2023-02-22T22:45:12.621Z,23.23
2023-02-22T22:47:41.268Z,22.15
2023-02-22T22:50:10.740Z,24.27
2023-02-22T22:52:37.546Z,23.02
2023-02-22T22:55:05.182Z,22.70
2023-02-22T22:57:31.787Z,24.20
2023-02-22T23:00:00.156Z,24.27
2023-02-22T23:02:27.083Z,24.30
2023-02-22T23:04:53.957Z,24.10
2023-02-22T23:07:20.981Z,24.30
2023-02-22T23:09:47.634Z,24.45
2023-02-22T23:12:18.083Z,23.60
2023-02-22T23:14:44.943Z,22.77
2023-02-22T23:17:14.854Z,24.20
2023-02-22T23:19:42.272Z,23.55
2023-02-22T23:22:08.965Z,23.50
2023-02-22T23:24:36.249Z,24.35
2023-02-22T23:27:07.072Z,23.73
2023-02-22T23:29:36.450Z,23.95
2023-02-22T23:32:05.602Z,24.40
2023-02-22T23:34:32.552Z,24.85
2023-02-22T23:36:59.174Z,23.45
2023-02-22T23:39:26.143Z,23.77
2023-02-22T23:41:53.428Z,26.50
2023-02-22T23:44:21.428Z,26.48
2023-02-22T23:46:48.938Z,23.80
2023-02-22T23:49:20.059Z,25.30
2023-02-22T23:51:46.756Z,22.33
2023-02-22T23:54:15.504Z,23.02
2023-02-22T23:56:47.255Z,21.88
2023-02-22T23:59:14.241Z,23.35
